Time;durP1;ratioP1;P1;durP2;ratioP2;P2;SDS_P1;SDS_P2;PMS_P1;PMS_P2;Temp;Humidity;BMP_temperature;BMP_pressure;BME280_temperature;BME280_humidity;BME280_pressure;Samples;Min_cycle;Max_cycle;Signal;HPM_P1;HPM_P2
2023/01/04 00:01:24;;;;;;;7.30;2.03;;;;;;;7.24;100.00;101812.06;5009677;28;20026;-65
2023/01/04 00:03:49;;;;;;;3.60;1.98;;;;;;;7.20;100.00;101805.84;5009340;28;20022;-65
2023/01/04 00:06:16;;;;;;;5.15;2.05;;;;;;;7.18;100.00;101804.84;5008134;28;20034;-65
2023/01/04 00:08:41;;;;;;;6.22;1.73;;;;;;;7.15;100.00;101789.19;5008287;28;20091;-65
2023/01/04 00:11:16;;;;;;;7.80;1.88;;;;;;;7.14;100.00;101782.25;5015439;28;20021;-65
2023/01/04 00:13:41;;;;;;;5.20;1.77;;;;;;;7.09;100.00;101784.56;5041644;28;20507;-65
2023/01/04 00:16:11;;;;;;;4.78;2.10;;;;;;;7.07;100.00;101778.41;5031892;28;20108;-65
2023/01/04 00:18:37;;;;;;;8.40;2.08;;;;;;;7.06;100.00;101778.31;5026440;28;20029;-65
2023/01/04 00:21:08;;;;;;;7.28;1.98;;;;;;;7.04;100.00;101774.75;5028229;28;20374;-65
2023/01/04 00:23:34;;;;;;;5.30;1.70;;;;;;;7.01;100.00;101769.41;5029042;28;20389;-65
2023/01/04 00:25:59;;;;;;;5.15;1.80;;;;;;;7.02;100.00;101760.88;5027252;28;20033;-65
2023/01/04 00:28:25;;;;;;;5.95;2.30;;;;;;;7.06;100.00;101768.00;5026589;28;20060;-65
2023/01/04 00:30:50;;;;;;;5.22;2.72;;;;;;;7.04;100.00;101759.28;5035649;28;20028;-65
2023/01/04 00:33:15;;;;;;;6.28;2.35;;;;;;;7.01;100.00;101754.84;5023420;28;20032;-65
2023/01/04 00:35:40;;;;;;;4.38;1.92;;;;;;;7.05;100.00;101743.03;5021202;28;20622;-65
2023/01/04 00:38:06;;;;;;;5.47;2.13;;;;;;;7.05;100.00;101737.88;5008681;28;20033;-65
2023/01/04 00:40:31;;;;;;;4.68;2.13;;;;;;;7.05;100.00;101722.41;5010984;28;20080;-65
2023/01/04 00:42:56;;;;;;;5.63;2.22;;;;;;;7.04;100.00;101734.41;5027219;28;20041;-65
2023/01/04 00:45:21;;;;;;;5.45;2.45;;;;;;;7.06;100.00;101716.44;5009802;28;20026;-65
2023/01/04 00:47:47;;;;;;;7.03;2.58;;;;;;;7.07;100.00;101723.38;5008657;28;20026;-65
2023/01/04 00:50:12;;;;;;;5.55;2.78;;;;;;;7.08;100.00;101722.59;5009410;28;20356;-65
2023/01/04 00:52:37;;;;;;;4.00;2.30;;;;;;;7.10;100.00;101713.28;5008478;28;20046;-65
2023/01/04 00:55:02;;;;;;;3.47;1.70;;;;;;;7.14;100.00;101715.22;5023217;28;20039;-65
2023/01/04 00:57:28;;;;;;;6.60;2.05;;;;;;;7.14;100.00;101709.19;5023890;28;20386;-66
2023/01/04 00:59:53;;;;;;;5.53;2.00;;;;;;;7.12;100.00;101701.38;5012664;28;20033;-65
2023/01/04 01:02:18;;;;;;;5.80;2.10;;;;;;;7.17;100.00;101701.63;5030100;28;20022;-65
2023/01/04 01:04:43;;;;;;;3.42;2.10;;;;;;;7.20;100.00;101687.25;5034057;28;20025;-65
2023/01/04 01:07:09;;;;;;;5.03;1.77;;;;;;;7.21;100.00;101691.59;5029698;28;20025;-65
2023/01/04 01:09:34;;;;;;;3.58;1.95;;;;;;;7.26;100.00;101686.72;5029480;28;20053;-65
2023/01/04 01:11:59;;;;;;;4.38;2.03;;;;;;;7.26;100.00;101679.00;5029200;28;20013;-65
2023/01/04 01:14:25;;;;;;;4.50;2.30;;;;;;;7.27;100.00;101683.34;5029758;28;20045;-65
2023/01/04 01:16:50;;;;;;;7.53;1.92;;;;;;;7.27;100.00;101685.00;5030098;28;20096;-65
2023/01/04 01:19:16;;;;;;;6.50;1.70;;;;;;;7.27;100.00;101688.50;5016510;28;20117;-65
2023/01/04 01:21:41;;;;;;;6.00;2.08;;;;;;;7.27;100.00;101680.75;5016805;28;20430;-65
2023/01/04 01:24:13;;;;;;;5.35;2.00;;;;;;;7.29;100.00;101683.41;5029167;28;20062;-65
2023/01/04 01:26:38;;;;;;;4.90;2.38;;;;;;;7.31;100.00;101666.34;5028259;28;20104;-65
2023/01/04 01:29:04;;;;;;;6.07;2.00;;;;;;;7.31;100.00;101677.56;5029833;28;20438;-65
2023/01/04 01:31:29;;;;;;;5.57;1.90;;;;;;;7.33;100.00;101681.13;5030224;28;20065;-65
2023/01/04 01:33:55;;;;;;;4.53;1.80;;;;;;;7.33;100.00;101672.50;5035767;28;20095;-65
2023/01/04 01:36:22;;;;;;;4.68;2.17;;;;;;;7.35;100.00;101677.75;5029709;28;20770;-65
2023/01/04 01:38:48;;;;;;;4.82;2.20;;;;;;;7.39;100.00;101670.28;5028524;28;20549;-65
2023/01/04 01:41:24;;;;;;;5.53;2.17;;;;;;;7.40;100.00;101669.47;5030037;28;20025;-66
2023/01/04 01:44:25;;;;;;;4.75;2.10;;;;;;;7.41;100.00;101660.94;5024873;28;20044;-65
2023/01/04 01:46:53;;;;;;;4.15;2.35;;;;;;;7.40;100.00;101655.69;5027960;28;20059;-65
2023/01/04 01:49:27;;;;;;;4.68;2.03;;;;;;;7.40;100.00;101656.59;5025722;28;20033;-65
2023/01/04 01:51:55;;;;;;;3.28;2.10;;;;;;;7.37;100.00;101653.84;5021038;28;20119;-66
2023/01/04 01:54:27;;;;;;;2.85;2.10;;;;;;;7.40;100.00;101664.31;5029334;28;20405;-65
2023/01/04 01:56:56;;;;;;;4.57;2.05;;;;;;;7.39;100.00;101659.06;5012592;28;20104;-65
2023/01/04 01:59:23;;;;;;;3.97;2.20;;;;;;;7.41;100.00;101655.78;5021371;28;20033;-65
2023/01/04 02:01:48;;;;;;;6.47;1.98;;;;;;;7.43;100.00;101649.03;5034426;28;20501;-65
2023/01/04 02:04:15;;;;;;;4.00;2.15;;;;;;;7.45;100.00;101654.25;5041795;28;20092;-65
2023/01/04 02:06:44;;;;;;;4.57;2.33;;;;;;;7.45;100.00;101639.69;5029403;28;20014;-65
2023/01/04 02:09:11;;;;;;;3.38;1.50;;;;;;;7.45;100.00;101644.84;5009922;28;20037;-65
2023/01/04 02:11:36;;;;;;;4.60;2.28;;;;;;;7.47;100.00;101641.44;5010344;28;20450;-65
2023/01/04 02:17:00;;;;;;;3.47;1.95;;;;;;;7.52;100.00;101653.81;5028275;28;20103;-65
2023/01/04 02:19:46;;;;;;;3.83;1.55;;;;;;;7.52;100.00;101653.81;5028666;28;20025;-65
2023/01/04 02:22:33;;;;;;;6.53;1.70;;;;;;;7.55;100.00;101650.53;5027578;28;20021;-65
2023/01/04 02:25:37;;;;;;;2.38;1.50;;;;;;;7.55;100.00;101650.53;5017912;28;20113;-65
2023/01/04 02:28:40;;;;;;;3.13;1.48;;;;;;;7.57;100.00;101629.16;5021442;28;20502;-66
2023/01/04 02:31:27;;;;;;;2.47;1.48;;;;;;;7.61;100.00;101644.84;5031601;28;20040;-66
2023/01/04 02:34:03;;;;;;;4.45;1.73;;;;;;;7.60;100.00;101638.78;5025945;28;20260;-65
2023/01/04 02:36:36;;;;;;;2.33;1.20;;;;;;;7.64;100.00;101645.00;5009823;28;20045;-66
2023/01/04 02:39:16;;;;;;;2.20;0.95;;;;;;;7.68;100.00;101624.63;5009618;28;20022;-65
2023/01/04 02:42:12;;;;;;;2.63;1.08;;;;;;;7.73;100.00;101611.09;5009909;28;20029;-65
2023/01/04 02:44:52;;;;;;;1.25;1.05;;;;;;;7.77;100.00;101607.91;5028975;28;20029;-66
2023/01/04 02:50:34;;;;;;;2.22;0.90;;;;;;;7.82;100.00;101588.41;5027964;28;20047;-65
2023/01/04 02:53:13;;;;;;;3.08;1.20;;;;;;;7.85;100.00;101593.72;5009132;28;20077;-65
2023/01/04 02:55:56;;;;;;;1.85;0.90;;;;;;;7.85;100.00;101596.31;5013870;28;20021;-63
2023/01/04 02:58:28;;;;;;;2.53;1.20;;;;;;;7.88;100.00;101593.88;5027545;28;20489;-63
2023/01/04 03:07:38;;;;;;;1.05;0.80;;;;;;;7.90;100.00;101591.38;5018295;28;20409;-65
2023/01/04 03:10:14;;;;;;;2.35;1.00;;;;;;;7.91;100.00;101593.19;5027888;28;20048;-65
2023/01/04 03:12:47;;;;;;;2.67;0.93;;;;;;;7.93;100.00;101578.66;5028480;28;20021;-65
2023/01/04 03:15:18;;;;;;;4.40;1.10;;;;;;;7.97;100.00;101571.97;5027522;28;20090;-65
2023/01/04 03:18:24;;;;;;;1.90;0.80;;;;;;;7.98;100.00;101573.75;5027720;28;20028;-66
2023/01/04 03:20:51;;;;;;;1.30;1.05;;;;;;;8.02;100.00;101555.06;5019647;28;20478;-65
2023/01/04 03:37:45;;;;;;;1.83;1.25;;;;;;;8.10;100.00;101553.75;5028079;28;20188;-65
2023/01/04 03:49:26;;;;;;;1.35;1.02;;;;;;;8.20;100.00;101528.44;5010209;28;20037;-65
2023/01/04 03:51:56;;;;;;;2.53;1.30;;;;;;;8.22;100.00;101529.41;5009963;28;20042;-65
2023/01/04 03:54:32;;;;;;;2.22;1.30;;;;;;;8.22;100.00;101519.09;5017692;28;20036;-65
2023/01/04 03:56:58;;;;;;;2.45;1.40;;;;;;;8.25;100.00;101516.66;5013147;28;20037;-65
2023/01/04 03:59:23;;;;;;;5.85;1.73;;;;;;;8.27;100.00;101509.88;5009013;28;20113;-65
2023/01/04 04:01:49;;;;;;;2.75;1.48;;;;;;;8.34;100.00;101509.41;5009642;28;20109;-66
2023/01/04 04:09:42;;;;;;;1.42;1.20;;;;;;;8.37;100.00;101521.56;5009428;28;20041;-65
2023/01/04 04:12:08;;;;;;;1.30;1.20;;;;;;;8.38;100.00;101516.47;5008233;28;20382;-65
2023/01/04 04:14:33;;;;;;;3.78;1.45;;;;;;;8.40;100.00;101507.13;5008157;28;20526;-65
2023/01/04 04:16:58;;;;;;;2.33;1.10;;;;;;;8.41;100.00;101498.56;5008793;28;20025;-65
2023/01/04 04:19:23;;;;;;;1.88;1.27;;;;;;;8.43;100.00;101500.34;5008656;28;20092;-66
2023/01/04 04:21:49;;;;;;;1.45;1.25;;;;;;;8.41;100.00;101490.81;5007433;28;20405;-65
2023/01/04 04:24:19;;;;;;;1.77;1.35;;;;;;;8.44;100.00;101503.00;5008241;28;20255;-66
2023/01/04 04:26:45;;;;;;;3.65;1.92;;;;;;;8.46;100.00;101505.66;5008238;28;20087;-65
2023/01/04 04:29:10;;;;;;;3.13;1.30;;;;;;;8.45;100.00;101478.97;5032499;28;20033;-66
2023/01/04 04:31:36;;;;;;;1.67;1.58;;;;;;;8.45;100.00;101486.72;5026120;28;20029;-66
2023/01/04 04:34:02;;;;;;;1.90;1.33;;;;;;;8.50;100.00;101494.69;5031639;28;20160;-66
2023/01/04 04:36:27;;;;;;;3.67;1.90;;;;;;;8.51;100.00;101478.34;5027256;28;20037;-66
2023/01/04 04:38:52;;;;;;;3.22;2.20;;;;;;;8.51;100.00;101481.84;5014019;28;20049;-65
2023/01/04 04:44:02;;;;;;;2.30;1.65;;;;;;;8.57;100.00;101468.38;5025867;28;20040;-65
2023/01/04 04:46:27;;;;;;;2.17;1.92;;;;;;;8.60;100.00;101472.84;5023567;28;20021;-66
2023/01/04 04:48:52;;;;;;;2.33;1.45;;;;;;;8.62;100.00;101466.91;5015504;28;20040;-66
2023/01/04 04:51:17;;;;;;;4.13;1.50;;;;;;;8.65;100.00;101466.19;5016434;28;20393;-63
2023/01/04 04:53:44;;;;;;;1.77;1.60;;;;;;;8.67;100.00;101463.69;5032546;28;20500;-63
2023/01/04 04:56:10;;;;;;;1.92;1.70;;;;;;;8.68;100.00;101470.59;5031361;28;20033;-63
2023/01/04 04:58:36;;;;;;;2.33;1.80;;;;;;;8.72;100.00;101447.59;5021673;28;20104;-64
2023/01/04 05:01:02;;;;;;;4.03;1.90;;;;;;;8.74;100.00;101442.50;5020620;28;20079;-64
2023/01/04 05:03:28;;;;;;;3.08;1.90;;;;;;;8.74;100.00;101461.47;5007451;28;20025;-64
2023/01/04 05:05:53;;;;;;;5.13;1.92;;;;;;;8.76;100.00;101449.50;5007702;28;20025;-64
2023/01/04 05:08:19;;;;;;;3.25;1.70;;;;;;;8.77;100.00;101433.22;5007157;28;20116;-63
2023/01/04 05:10:44;;;;;;;1.90;1.65;;;;;;;8.84;100.00;101441.25;5013780;28;20071;-63
2023/01/04 05:13:11;;;;;;;2.90;2.03;;;;;;;8.90;100.00;101441.56;5026438;28;20052;-64
2023/01/04 05:15:42;;;;;;;3.65;1.80;;;;;;;8.94;100.00;101442.59;5025958;28;20428;-64
2023/01/04 05:18:10;;;;;;;5.40;2.10;;;;;;;8.96;100.00;101431.50;5026431;28;20025;-64
2023/01/04 05:20:36;;;;;;;4.95;1.80;;;;;;;8.99;100.00;101435.94;5025876;28;20033;-64
2023/01/04 05:23:01;;;;;;;2.58;1.85;;;;;;;9.04;100.00;101431.88;5025835;28;20071;-63
2023/01/04 05:25:26;;;;;;;2.88;1.70;;;;;;;9.03;100.00;101427.50;5025825;28;20029;-63
2023/01/04 05:27:52;;;;;;;2.00;1.33;;;;;;;9.06;100.00;101422.50;5026702;28;20021;-64
2023/01/04 05:33:02;;;;;;;4.25;1.98;;;;;;;9.09;100.00;101416.56;5029121;28;20127;-63
2023/01/04 05:35:28;;;;;;;2.72;1.60;;;;;;;9.10;100.00;101401.13;5028176;28;20385;-63
2023/01/04 05:37:53;;;;;;;2.40;1.73;;;;;;;9.17;100.00;101404.00;5033852;28;20032;-64
2023/01/04 05:40:19;;;;;;;2.88;2.28;;;;;;;9.21;100.00;101400.75;5025307;28;20033;-64
2023/01/04 05:42:44;;;;;;;3.17;1.13;;;;;;;9.22;100.00;101402.53;5028763;28;20022;-64
2023/01/04 05:45:10;;;;;;;2.80;1.60;;;;;;;9.24;100.00;101393.16;5024807;28;20462;-64
2023/01/04 05:47:36;;;;;;;2.70;1.80;;;;;;;9.24;100.00;101390.56;5014033;28;20108;-64
2023/01/04 05:50:02;;;;;;;3.97;1.88;;;;;;;9.24;100.00;101393.16;5025202;28;20413;-64
2023/01/04 05:52:28;;;;;;;3.13;1.45;;;;;;;9.24;100.00;101395.72;5022165;28;20112;-64
2023/01/04 05:54:53;;;;;;;2.25;1.60;;;;;;;9.22;100.00;101389.59;5011441;28;20493;-64
2023/01/04 05:57:18;;;;;;;5.30;1.70;;;;;;;9.22;100.00;101392.19;5028763;28;20022;-64
2023/01/04 05:59:44;;;;;;;3.38;1.63;;;;;;;9.21;100.00;101393.00;5026471;28;20035;-64
2023/01/04 06:02:35;;;;;;;2.08;1.58;;;;;;;9.24;100.00;101386.28;5027738;28;20029;-64
2023/01/04 06:05:01;;;;;;;6.13;1.73;;;;;;;9.25;100.00;101376.81;5013389;28;20556;-64
2023/01/04 06:07:27;;;;;;;3.85;1.58;;;;;;;9.29;100.00;101372.66;5033130;28;20033;-64
2023/01/04 06:09:53;;;;;;;1.98;1.33;;;;;;;9.34;100.00;101371.16;5015902;28;20448;-64
2023/01/04 06:12:18;;;;;;;3.47;1.40;;;;;;;9.37;100.00;101385.13;5025846;28;20096;-64
2023/01/04 06:14:44;;;;;;;2.00;1.45;;;;;;;9.40;100.00;101391.25;5029512;28;20482;-64
2023/01/04 06:17:09;;;;;;;1.33;1.10;;;;;;;9.47;100.00;101398.47;5029376;28;20431;-64
2023/01/04 06:19:35;;;;;;;2.53;1.35;;;;;;;9.46;100.00;101391.56;5020686;28;20522;-64
2023/01/04 06:22:00;;;;;;;3.72;1.38;;;;;;;9.46;100.00;101407.06;5022573;28;20048;-64
2023/01/04 06:24:25;;;;;;;1.90;1.50;;;;;;;9.48;100.00;101395.06;5020160;28;20482;-64
2023/01/04 06:26:51;;;;;;;4.35;1.65;;;;;;;9.46;100.00;101401.91;5013285;28;20383;-64
2023/01/04 06:29:16;;;;;;;2.45;1.40;;;;;;;9.47;100.00;101403.66;5018053;28;20021;-64
2023/01/04 06:31:42;;;;;;;2.67;1.52;;;;;;;9.46;100.00;101392.41;5017804;28;20363;-64
2023/01/04 06:34:10;;;;;;;2.83;1.55;;;;;;;9.46;100.00;101381.19;5020062;28;20033;-64
2023/01/04 06:36:36;;;;;;;2.72;1.70;;;;;;;9.46;100.00;101378.63;5017389;28;20486;-64
2023/01/04 06:39:01;;;;;;;3.55;1.60;;;;;;;9.46;100.00;101368.25;5021300;28;20025;-64
2023/01/04 06:41:26;;;;;;;2.92;1.63;;;;;;;9.41;100.00;101364.59;5014198;28;20587;-64
2023/01/04 06:43:52;;;;;;;2.70;1.30;;;;;;;9.40;100.00;101378.31;5031001;28;20033;-64
2023/01/04 06:46:18;;;;;;;2.53;1.45;;;;;;;9.37;100.00;101382.53;5017581;28;20022;-64
2023/01/04 06:48:43;;;;;;;3.28;1.63;;;;;;;9.36;100.00;101400.56;5029887;28;20029;-64
2023/01/04 06:51:09;;;;;;;3.15;1.35;;;;;;;9.40;100.00;101386.09;5026267;28;20029;-64
2023/01/04 06:53:34;;;;;;;3.55;1.40;;;;;;;9.40;100.00;101366.28;5037134;28;20497;-64
2023/01/04 06:55:59;;;;;;;3.35;1.75;;;;;;;9.38;100.00;101388.59;5025678;28;20044;-66
2023/01/04 06:58:25;;;;;;;2.75;1.27;;;;;;;9.40;100.00;101404.19;5025988;28;20026;-64
2023/01/04 07:00:54;;;;;;;1.70;1.30;;;;;;;9.44;100.00;101382.81;5019259;28;20080;-64
2023/01/04 07:03:20;;;;;;;3.97;1.60;;;;;;;9.43;100.00;101375.88;5008004;28;20026;-63
2023/01/04 07:05:45;;;;;;;2.35;2.00;;;;;;;9.44;100.00;101368.19;5009684;28;20448;-64
2023/01/04 07:08:12;;;;;;;3.00;1.70;;;;;;;9.46;100.00;101381.19;5010453;28;20026;-64
2023/01/04 07:10:37;;;;;;;3.83;2.28;;;;;;;9.47;100.00;101365.75;5011307;28;20022;-64
2023/01/04 07:13:03;;;;;;;2.72;1.58;;;;;;;9.49;100.00;101374.47;5010114;28;20028;-64
2023/01/04 07:15:28;;;;;;;1.55;1.20;;;;;;;9.56;100.00;101385.97;5011621;28;20026;-65
2023/01/04 07:17:54;;;;;;;3.72;1.50;;;;;;;9.58;100.00;101366.22;5011341;28;20306;-64
2023/01/04 07:20:19;;;;;;;3.38;1.23;;;;;;;9.67;100.00;101354.50;5021949;28;20510;-64
2023/01/04 07:22:44;;;;;;;2.72;1.50;;;;;;;9.77;100.00;101350.63;5011594;28;20026;-64
2023/01/04 07:25:10;;;;;;;3.88;1.10;;;;;;;9.79;100.00;101360.22;5013331;28;20088;-64
2023/01/04 07:27:35;;;;;;;3.60;1.05;;;;;;;9.85;100.00;101341.47;5020339;28;20033;-64
2023/01/04 07:30:00;;;;;;;3.15;1.10;;;;;;;9.88;100.00;101338.13;5020229;28;20025;-64
2023/01/04 07:32:25;;;;;;;2.15;1.05;;;;;;;9.86;100.00;101343.25;5010395;28;20026;-64
2023/01/04 07:34:51;;;;;;;1.27;0.75;;;;;;;9.88;100.00;101343.28;5009867;28;20037;-64
2023/01/04 07:37:16;;;;;;;2.33;0.95;;;;;;;9.87;100.00;101337.25;5010803;28;20026;-64
2023/01/04 07:39:42;;;;;;;3.42;1.00;;;;;;;9.89;100.00;101339.91;5023080;28;20068;-65
2023/01/04 07:42:10;;;;;;;3.05;0.90;;;;;;;9.94;100.00;101330.63;5010413;28;20046;-64
2023/01/04 07:44:36;;;;;;;2.80;1.10;;;;;;;9.96;100.00;101336.75;5009264;28;20038;-64
2023/01/04 07:47:02;;;;;;;2.90;1.15;;;;;;;9.99;100.00;101333.41;5018890;28;20653;-64
2023/01/04 07:49:28;;;;;;;2.45;1.00;;;;;;;10.04;100.00;101340.56;5030031;28;20485;-64
2023/01/04 07:51:53;;;;;;;4.05;0.80;;;;;;;10.05;100.00;101337.16;5030694;28;20045;-64
2023/01/04 07:54:19;;;;;;;3.25;0.73;;;;;;;10.04;100.00;101309.47;5015906;28;20100;-64
2023/01/04 07:56:45;;;;;;;3.53;0.90;;;;;;;10.12;100.00;101308.91;5018306;28;20032;-64
2023/01/04 07:59:12;;;;;;;3.17;0.70;;;;;;;10.16;100.00;101313.41;5021049;28;20527;-64
2023/01/04 08:01:38;;;;;;;4.80;1.00;;;;;;;10.17;100.00;101323.84;5024924;28;20017;-64
2023/01/04 08:04:05;;;;;;;3.92;0.80;;;;;;;10.23;100.00;101320.63;5019910;28;20075;-64
2023/01/04 08:06:30;;;;;;;2.55;0.95;;;;;;;10.24;100.00;101312.00;5013695;28;20029;-64
2023/01/04 08:08:57;;;;;;;2.38;0.82;;;;;;;10.31;100.00;101305.38;5022583;28;20029;-64
2023/01/04 08:11:23;;;;;;;1.67;0.68;;;;;;;10.32;100.00;101318.41;5015037;28;20496;-64
2023/01/04 08:13:49;;;;;;;3.90;0.90;;;;;;;10.39;100.00;101316.06;5010631;28;20040;-64
2023/01/04 08:16:26;;;;;;;2.22;0.82;;;;;;;10.37;100.00;101317.69;5007444;28;20033;-64
2023/01/04 08:18:57;;;;;;;1.75;0.65;;;;;;;10.37;100.00;101322.88;5011969;28;20029;-64
2023/01/04 08:21:23;;;;;;;2.25;0.77;;;;;;;10.32;100.00;101330.47;5015491;28;20624;-64
2023/01/04 08:23:48;;;;;;;2.53;0.65;;;;;;;10.33;100.00;101343.47;5012517;28;20529;-64
2023/01/04 08:26:15;;;;;;;3.33;0.70;;;;;;;10.37;100.00;101341.91;5011397;28;20033;-64
2023/01/04 08:28:41;;;;;;;2.33;1.05;;;;;;;10.41;100.00;101332.53;5015167;28;20087;-64
2023/01/04 08:31:09;;;;;;;2.80;0.90;;;;;;;10.41;100.00;101338.63;5024081;28;20013;-64
2023/01/04 08:33:36;;;;;;;2.30;0.80;;;;;;;10.46;100.00;101343.97;5026893;28;20071;-64
2023/01/04 08:36:12;;;;;;;1.67;0.80;;;;;;;10.47;100.00;101340.56;5017661;28;20600;-64
2023/01/04 08:38:37;;;;;;;2.92;0.95;;;;;;;10.52;100.00;101339.06;5017996;28;20033;-64
2023/01/04 08:41:04;;;;;;;4.45;1.05;;;;;;;10.54;100.00;101350.38;5023318;28;20033;-64
2023/01/04 08:43:29;;;;;;;4.68;0.98;;;;;;;10.55;100.00;101343.50;5023978;28;20079;-64
2023/01/04 08:45:54;;;;;;;2.63;0.77;;;;;;;10.53;100.00;101346.03;5022661;28;20589;-64
2023/01/04 08:48:19;;;;;;;3.50;1.10;;;;;;;10.54;100.00;101350.38;5023240;28;20030;-64
2023/01/04 08:50:45;;;;;;;2.00;1.08;;;;;;;10.57;100.00;101345.34;5023617;28;20025;-64
2023/01/04 08:53:10;;;;;;;3.22;0.90;;;;;;;10.59;100.00;101342.81;5025931;28;20041;-64
2023/01/04 08:55:35;;;;;;;4.38;0.90;;;;;;;10.61;100.00;101358.41;5020284;28;20032;-64
2023/01/04 08:58:02;;;;;;;4.65;0.93;;;;;;;10.66;100.00;101349.09;5028297;28;20363;-64
2023/01/04 09:00:27;;;;;;;2.15;0.90;;;;;;;10.66;100.00;101341.34;5013277;28;20065;-64
2023/01/04 09:02:53;;;;;;;6.10;1.20;;;;;;;10.69;100.00;101352.72;5023775;28;20070;-64
2023/01/04 09:05:18;;;;;;;3.13;1.20;;;;;;;10.73;100.00;101345.03;5016761;28;20014;-64
2023/01/04 09:07:43;;;;;;;3.63;0.80;;;;;;;10.74;100.00;101334.72;5009971;28;20433;-64
2023/01/04 09:10:09;;;;;;;2.35;0.75;;;;;;;10.74;100.00;101347.69;5011253;28;20017;-65
2023/01/04 09:12:35;;;;;;;4.60;1.15;;;;;;;10.77;100.00;101346.94;5016086;28;20033;-65
2023/01/04 09:15:00;;;;;;;1.98;0.70;;;;;;;10.82;100.00;101342.81;5025151;28;20049;-64
2023/01/04 09:17:25;;;;;;;2.13;0.90;;;;;;;10.80;100.00;101345.38;5022358;28;20160;-65
2023/01/04 09:19:50;;;;;;;6.75;1.10;;;;;;;10.82;100.00;101353.19;5020877;28;20067;-64
2023/01/04 09:22:16;;;;;;;2.65;1.05;;;;;;;10.83;100.00;101347.16;5021165;28;20113;-64
2023/01/04 09:24:41;;;;;;;3.78;0.70;;;;;;;10.84;100.00;101348.06;5019363;28;20084;-64
2023/01/04 09:27:06;;;;;;;3.47;0.88;;;;;;;10.84;100.00;101338.59;5017058;28;20025;-64
2023/01/04 09:29:32;;;;;;;3.38;0.65;;;;;;;10.83;100.00;101339.41;5023325;28;20090;-65
2023/01/04 09:31:57;;;;;;;2.50;0.73;;;;;;;10.83;100.00;101344.56;5018245;28;20476;-64
2023/01/04 09:34:22;;;;;;;3.53;0.73;;;;;;;10.80;100.00;101339.28;5027847;28;20036;-64
2023/01/04 09:36:48;;;;;;;3.35;1.05;;;;;;;10.78;100.00;101344.41;5019059;28;20479;-64
2023/01/04 09:39:14;;;;;;;3.00;0.90;;;;;;;10.77;100.00;101353.03;5022372;28;20021;-64
2023/01/04 09:41:53;;;;;;;3.78;0.98;;;;;;;10.73;100.00;101363.19;5014207;28;20021;-64
2023/01/04 09:44:27;;;;;;;4.28;1.13;;;;;;;10.72;100.00;101351.06;5017469;28;20050;-64
2023/01/04 09:47:06;;;;;;;6.90;1.13;;;;;;;10.67;100.00;101337.91;5017316;28;20385;-65
2023/01/04 09:49:43;;;;;;;0.88;0.73;;;;;;;10.66;100.00;101342.22;5012374;28;20025;-65
2023/01/04 09:52:08;;;;;;;1.40;0.80;;;;;;;10.63;100.00;101347.28;5012574;28;20049;-65
2023/01/04 09:54:46;;;;;;;2.15;0.90;;;;;;;10.59;100.00;101344.50;5015951;28;20633;-64
2023/01/04 09:57:46;;;;;;;3.72;1.15;;;;;;;10.57;100.00;101342.75;5015819;28;20032;-64
2023/01/04 10:00:23;;;;;;;4.65;1.02;;;;;;;10.56;100.00;101340.06;4983208;28;20037;-65
2023/01/04 10:02:55;;;;;;;1.98;1.33;;;;;;;10.55;100.00;101346.09;5010731;28;20022;-65
2023/01/04 10:05:26;;;;;;;2.10;1.23;;;;;;;10.54;100.00;101332.25;5012673;28;20033;-65
2023/01/04 10:07:51;;;;;;;3.25;1.65;;;;;;;10.58;100.00;101341.03;5012867;28;20059;-65
2023/01/04 10:10:23;;;;;;;3.67;1.33;;;;;;;10.58;100.00;101328.06;5016770;28;20468;-64
2023/01/04 10:13:25;;;;;;;3.88;1.60;;;;;;;10.57;100.00;101327.19;5018433;28;20443;-65
2023/01/04 10:16:11;;;;;;;3.88;1.77;;;;;;;10.55;100.00;101320.16;4999687;28;20033;-64
2023/01/04 10:19:00;;;;;;;5.65;1.48;;;;;;;10.56;100.00;101319.34;5028007;28;20485;-65
2023/01/04 10:21:42;;;;;;;2.97;1.75;;;;;;;10.51;100.00;101315.69;5013025;28;20033;-65
2023/01/04 10:24:24;;;;;;;3.60;1.90;;;;;;;10.52;100.00;101318.34;5019399;28;20386;-64
2023/01/04 10:26:55;;;;;;;5.55;2.10;;;;;;;10.50;100.00;101324.28;5012668;28;20564;-65
2023/01/04 10:30:01;;;;;;;5.22;2.10;;;;;;;10.50;100.00;101325.19;5016124;28;20492;-66
2023/01/04 10:32:40;;;;;;;2.47;1.63;;;;;;;10.47;100.00;101324.16;5014509;28;20025;-65
2023/01/04 10:35:19;;;;;;;4.00;1.80;;;;;;;10.47;100.00;101321.56;5019525;28;20075;-65
2023/01/04 10:37:51;;;;;;;4.88;1.95;;;;;;;10.47;100.00;101327.59;5018134;28;20040;-65
2023/01/04 10:40:17;;;;;;;5.28;1.52;;;;;;;10.47;100.00;101314.63;5020983;28;20022;-64
2023/01/04 10:43:03;;;;;;;5.97;1.98;;;;;;;10.44;100.00;101325.78;5034513;28;20025;-65
2023/01/04 10:45:45;;;;;;;3.13;1.50;;;;;;;10.45;100.00;101316.31;5016129;28;20056;-64
2023/01/04 10:48:45;;;;;;;4.13;1.60;;;;;;;10.46;100.00;101333.63;5013692;28;20478;-65
2023/01/04 10:51:15;;;;;;;3.97;1.55;;;;;;;10.46;100.00;101305.13;5019046;28;20046;-65
2023/01/04 10:53:49;;;;;;;3.85;1.98;;;;;;;10.47;100.00;101318.97;5017419;28;20175;-64
2023/01/04 10:56:39;;;;;;;2.33;1.40;;;;;;;10.47;100.00;101299.09;5030306;28;20061;-65
2023/01/04 10:59:12;;;;;;;4.30;1.60;;;;;;;10.47;100.00;101301.69;5015136;28;20078;-64
2023/01/04 11:02:00;;;;;;;3.38;1.60;;;;;;;10.45;100.00;101295.59;5018654;28;20034;-65
2023/01/04 11:04:35;;;;;;;3.78;2.45;;;;;;;10.44;100.00;101301.56;5030111;28;20499;-65
2023/01/04 11:07:11;;;;;;;4.72;1.95;;;;;;;10.43;100.00;101300.69;5030325;28;20061;-64
2023/01/04 11:09:46;;;;;;;2.47;1.48;;;;;;;10.46;100.00;101297.34;5022799;28;20036;-64
2023/01/04 11:12:13;;;;;;;2.42;1.20;;;;;;;10.44;100.00;101304.16;5016355;28;20021;-65
2023/01/04 11:14:39;;;;;;;2.67;1.58;;;;;;;10.44;100.00;101310.25;5010789;28;20017;-64
2023/01/04 11:17:06;;;;;;;2.97;1.20;;;;;;;10.43;100.00;101312.78;5019164;28;20493;-65
2023/01/04 11:19:32;;;;;;;2.45;1.10;;;;;;;10.45;100.00;101303.34;5012520;28;20042;-64
2023/01/04 11:22:26;;;;;;;3.17;1.02;;;;;;;10.43;100.00;101297.22;5026504;28;20025;-65
2023/01/04 11:24:59;;;;;;;0.90;0.73;;;;;;;10.44;100.00;101309.34;5025157;28;20511;-65
2023/01/04 11:27:30;;;;;;;3.65;0.77;;;;;;;10.47;100.00;101314.63;5018146;28;20105;-64
2023/01/04 11:30:02;;;;;;;1.73;0.80;;;;;;;10.46;100.00;101302.53;5022215;28;20017;-65
2023/01/04 11:33:09;;;;;;;1.83;1.00;;;;;;;10.46;100.00;101297.34;5021680;28;20036;-65
2023/01/04 11:35:47;;;;;;;1.80;0.88;;;;;;;10.43;100.00;101308.44;5020905;28;20033;-65
2023/01/04 11:38:21;;;;;;;2.95;1.02;;;;;;;10.43;100.00;101298.09;5022365;28;20025;-64
2023/01/04 11:41:07;;;;;;;2.03;0.80;;;;;;;10.43;100.00;101318.81;5024874;28;20540;-64
2023/01/04 11:43:35;;;;;;;2.35;1.10;;;;;;;10.43;100.00;101290.31;5021860;28;20068;-64
2023/01/04 11:46:18;;;;;;;1.92;0.63;;;;;;;10.48;100.00;101320.75;5028603;28;20584;-64
2023/01/04 11:48:45;;;;;;;1.77;0.57;;;;;;;10.45;100.00;101300.78;5022979;28;20032;-65
2023/01/04 11:51:36;;;;;;;0.75;0.60;;;;;;;10.44;100.00;101311.94;5012840;28;20109;-64
2023/01/04 11:54:17;;;;;;;0.53;0.53;;;;;;;10.45;100.00;101300.78;5009035;28;20281;-65
2023/01/04 11:57:09;;;;;;;0.80;0.50;;;;;;;10.43;100.00;101318.81;5009212;28;20473;-65
2023/01/04 11:59:35;;;;;;;1.38;0.60;;;;;;;10.44;100.00;101309.34;5031916;28;20426;-64
2023/01/04 12:02:24;;;;;;;0.88;0.60;;;;;;;10.45;100.00;101313.72;5023247;28;20068;-64
2023/01/04 12:04:53;;;;;;;0.50;0.50;;;;;;;10.44;100.00;101319.72;5024627;28;20112;-65
2023/01/04 12:07:30;;;;;;;1.17;0.77;;;;;;;10.45;100.00;101303.34;5015835;28;20029;-64
2023/01/04 12:10:00;;;;;;;0.55;0.32;;;;;;;10.45;100.00;101303.34;5014969;28;20044;-65
2023/01/04 12:12:32;;;;;;;0.43;0.43;;;;;;;10.48;100.00;101311.28;5027430;28;20032;-65
2023/01/04 12:15:04;;;;;;;2.13;0.75;;;;;;;10.46;100.00;101318.06;5017702;28;20036;-64
2023/01/04 12:17:47;;;;;;;0.75;0.40;;;;;;;10.48;100.00;101310.38;5016446;28;20064;-65
2023/01/04 12:20:16;;;;;;;2.90;0.85;;;;;;;10.46;100.00;101307.69;5009405;28;20030;-65
2023/01/04 12:22:41;;;;;;;1.20;0.50;;;;;;;10.47;100.00;101300.81;5010901;28;20069;-65